Time;durP1;ratioP1;P1;durP2;ratioP2;P2;SDS_P1;SDS_P2;PMS_P1;PMS_P2;Temp;Humidity;BMP_temperature;BMP_pressure;BME280_temperature;BME280_humidity;BME280_pressure;Samples;Min_cycle;Max_cycle;Signal;HPM_P1;HPM_P2
2021/05/18 00:02:17;;;;;;;2.10;0.60;;;;;;;19.47;49.28;100768.69;5072012;28;20036;-66
2021/05/18 00:04:45;;;;;;;2.17;0.75;;;;;;;19.50;48.86;100760.56;5069934;28;20044;-66
2021/05/18 00:07:16;;;;;;;3.05;0.70;;;;;;;19.40;49.18;100769.69;5070899;28;20547;-65
2021/05/18 00:12:27;;;;;;;;;;;;;;;19.30;49.24;100768.09;5070202;28;20556;-65
2021/05/18 00:14:56;;;;;;;4.28;0.70;;;;;;;19.30;49.01;100755.59;5071220;28;20027;-66
2021/05/18 00:17:23;;;;;;;3.20;0.65;;;;;;;19.33;49.05;100766.25;5071421;28;20044;-65
2021/05/18 00:19:50;;;;;;;3.70;0.80;;;;;;;19.26;49.41;100759.25;5072355;28;20574;-65
2021/05/18 00:22:18;;;;;;;4.00;0.75;;;;;;;19.24;49.32;100755.72;5070403;28;20116;-66
2021/05/18 00:24:45;;;;;;;4.03;0.70;;;;;;;19.26;49.29;100744.97;5072898;28;20067;-66
2021/05/18 00:27:12;;;;;;;3.25;0.60;;;;;;;19.24;49.75;100754.81;5070254;28;20064;-66
2021/05/18 00:29:40;;;;;;;2.80;0.82;;;;;;;19.25;49.74;100748.56;5071604;28;20128;-66
2021/05/18 00:32:08;;;;;;;2.13;0.70;;;;;;;19.16;49.60;100749.66;5071208;28;20561;-66
2021/05/18 00:34:36;;;;;;;2.05;0.90;;;;;;;19.04;50.21;100750.75;5072230;28;20043;-66
2021/05/18 00:37:03;;;;;;;3.97;0.52;;;;;;;19.08;49.95;100749.78;5068571;28;20132;-66
2021/05/18 00:39:30;;;;;;;4.15;0.60;;;;;;;19.11;49.96;100749.72;5070157;28;20037;-66
2021/05/18 00:41:57;;;;;;;7.18;1.13;;;;;;;19.12;50.19;100747.94;5071173;28;20067;-66
2021/05/18 00:44:24;;;;;;;3.22;1.00;;;;;;;19.11;49.86;100747.03;5070526;28;20492;-66
2021/05/18 00:46:51;;;;;;;3.83;1.00;;;;;;;19.07;50.02;100748.03;5068069;28;20115;-66
2021/05/18 00:49:20;;;;;;;3.33;0.70;;;;;;;19.09;50.08;100740.88;5072397;28;20071;-66
2021/05/18 00:51:47;;;;;;;4.45;0.90;;;;;;;19.15;50.14;100736.28;5069305;28;20048;-65
2021/05/18 00:54:21;;;;;;;6.75;1.10;;;;;;;19.17;49.98;100737.13;5071026;28;20082;-65
2021/05/18 00:59:35;;;;;;;5.85;1.00;;;;;;;19.05;50.27;100739.13;5053993;28;20496;-66
2021/05/18 01:02:03;;;;;;;2.33;0.60;;;;;;;19.00;50.66;100737.47;5070156;28;20064;-66
2021/05/18 01:04:31;;;;;;;3.58;0.63;;;;;;;18.95;50.68;100729.53;5071135;28;20029;-66
2021/05/18 01:07:00;;;;;;;2.78;0.88;;;;;;;18.91;51.09;100734.97;5070328;28;20146;-65
2021/05/18 01:09:27;;;;;;;2.60;0.60;;;;;;;18.81;51.62;100726.25;5065173;28;20054;-66
2021/05/18 01:11:54;;;;;;;2.97;0.60;;;;;;;18.79;51.50;100720.03;5068872;28;20503;-65
2021/05/18 01:14:21;;;;;;;2.47;1.05;;;;;;;18.82;51.47;100721.78;5070608;28;20483;-65
2021/05/18 01:16:50;;;;;;;2.78;0.65;;;;;;;18.81;51.26;100712.88;5068845;28;20039;-65
2021/05/18 01:19:19;;;;;;;3.25;0.80;;;;;;;18.87;51.16;100722.56;5071168;28;20111;-66
2021/05/18 01:21:48;;;;;;;3.08;0.95;;;;;;;18.84;51.09;100726.16;5070043;28;20060;-66
2021/05/18 01:24:17;;;;;;;1.75;0.55;;;;;;;18.84;51.28;100725.31;5070301;28;20116;-65
2021/05/18 01:26:46;;;;;;;6.68;1.13;;;;;;;18.82;51.15;100736.03;5070216;28;20040;-65
2021/05/18 01:29:14;;;;;;;5.80;0.70;;;;;;;18.79;51.58;100714.69;5071075;28;20036;-65
2021/05/18 01:31:43;;;;;;;3.90;0.95;;;;;;;18.78;51.15;100723.59;5068919;28;20060;-66
2021/05/18 01:34:11;;;;;;;2.08;0.63;;;;;;;18.70;51.57;100721.09;5051112;28;20132;-65
2021/05/18 01:36:38;;;;;;;3.95;0.65;;;;;;;18.73;51.54;100716.59;5054357;28;20396;-65
2021/05/18 01:39:11;;;;;;;5.95;0.90;;;;;;;18.77;51.46;100715.63;5065694;28;20044;-66
2021/05/18 01:44:23;;;;;;;2.80;0.60;;;;;;;18.76;51.24;100714.75;5070639;28;20484;-66
2021/05/18 01:46:51;;;;;;;3.88;1.00;;;;;;;18.82;51.44;100713.75;5069862;28;20036;-65
2021/05/18 01:49:19;;;;;;;3.15;0.60;;;;;;;18.88;51.14;100714.50;5068265;28;20079;-65
2021/05/18 01:51:49;;;;;;;3.63;0.77;;;;;;;18.99;50.92;100715.19;5067321;28;20087;-66
2021/05/18 01:54:22;;;;;;;6.15;0.60;;;;;;;19.03;50.85;100719.53;5068064;28;20439;-66
2021/05/18 01:56:52;;;;;;;2.35;0.60;;;;;;;19.00;50.80;100727.66;5068623;28;20044;-66
2021/05/18 01:59:21;;;;;;;3.70;0.80;;;;;;;18.90;50.70;100725.19;5070553;28;20102;-66
2021/05/18 02:01:50;;;;;;;4.45;0.80;;;;;;;18.73;51.47;100730.84;5068372;28;20040;-65
2021/05/18 02:04:23;;;;;;;1.45;0.57;;;;;;;18.78;51.76;100730.75;5071062;28;20590;-65
2021/05/18 02:06:51;;;;;;;2.95;1.00;;;;;;;18.79;51.61;100732.50;5069471;28;20051;-66
2021/05/18 02:09:20;;;;;;;3.35;0.70;;;;;;;18.84;51.38;100738.69;5073033;28;20553;-65
2021/05/18 02:11:49;;;;;;;2.72;0.73;;;;;;;18.84;51.33;100731.50;5069029;28;20120;-66
2021/05/18 02:14:23;;;;;;;3.65;0.60;;;;;;;18.83;51.05;100734.25;5060334;28;20032;-66
2021/05/18 02:16:50;;;;;;;2.78;0.52;;;;;;;18.81;51.38;100736.94;5069500;28;20041;-65
2021/05/18 02:19:24;;;;;;;2.10;0.68;;;;;;;18.78;51.40;100739.66;5070773;28;20028;-66
2021/05/18 02:22:05;;;;;;;2.38;0.68;;;;;;;18.68;51.73;100743.41;5069769;28;21570;-66
2021/05/18 02:24:46;;;;;;;3.20;0.90;;;;;;;18.59;51.99;100739.09;5066516;28;20062;-66
2021/05/18 02:27:13;;;;;;;3.95;0.52;;;;;;;18.71;51.62;100744.22;5067886;28;20033;-66
2021/05/18 02:29:40;;;;;;;3.67;0.60;;;;;;;18.75;51.32;100755.78;5069713;28;20045;-66
2021/05/18 02:32:07;;;;;;;3.72;0.73;;;;;;;18.66;51.25;100754.13;5069424;28;20029;-65
2021/05/18 02:34:34;;;;;;;5.00;0.90;;;;;;;18.56;52.00;100757.00;5068955;28;20041;-66
2021/05/18 02:37:03;;;;;;;5.00;1.02;;;;;;;18.56;52.19;100759.69;5068344;28;20052;-65
2021/05/18 02:39:30;;;;;;;1.85;0.73;;;;;;;18.50;52.33;100759.75;5069574;28;20044;-66
2021/05/18 02:41:59;;;;;;;4.88;0.82;;;;;;;18.52;52.08;100757.91;5069004;28;20496;-65
2021/05/18 02:44:30;;;;;;;3.72;0.70;;;;;;;18.55;51.82;100769.50;5063841;28;20365;-66
2021/05/18 02:49:41;;;;;;;;;;;;;;;18.39;52.32;100777.75;5067173;28;20037;-66
2021/05/18 02:52:09;;;;;;;2.95;0.85;;;;;;;18.28;52.68;100773.47;5072118;28;19928;-65
2021/05/18 02:54:36;;;;;;;2.03;0.90;;;;;;;18.37;52.66;100766.22;5068742;28;20111;-66
2021/05/18 02:57:06;;;;;;;4.70;0.77;;;;;;;18.47;52.28;100775.84;5069157;28;20041;-65
2021/05/18 02:59:33;;;;;;;4.22;1.02;;;;;;;18.38;52.18;100768.00;5070163;28;20086;-66
2021/05/18 03:02:01;;;;;;;3.30;0.63;;;;;;;18.34;52.30;100783.16;5070129;28;20090;-65
2021/05/18 03:04:30;;;;;;;4.85;0.95;;;;;;;18.35;52.85;100781.38;5066250;28;20140;-66
2021/05/18 03:06:58;;;;;;;4.55;0.85;;;;;;;18.37;52.64;100782.25;5068732;28;20094;-66
2021/05/18 03:09:27;;;;;;;1.60;0.60;;;;;;;18.37;52.59;100779.59;5068811;28;20119;-66
2021/05/18 03:11:55;;;;;;;3.42;0.70;;;;;;;18.30;52.45;100784.13;5069436;28;20044;-66
2021/05/18 03:14:24;;;;;;;2.22;0.68;;;;;;;18.25;52.78;100796.66;5067331;28;20048;-65
2021/05/18 03:16:51;;;;;;;4.60;0.95;;;;;;;18.11;53.09;100796.91;5066992;28;20555;-65
2021/05/18 03:19:19;;;;;;;2.85;0.50;;;;;;;18.18;52.88;100795.88;5070123;28;20538;-66
2021/05/18 03:21:46;;;;;;;3.50;0.80;;;;;;;18.27;52.31;100798.41;5068824;28;20045;-65
2021/05/18 03:24:14;;;;;;;4.00;0.70;;;;;;;18.35;52.48;100798.31;5069588;28;20037;-65
2021/05/18 03:26:45;;;;;;;2.88;0.70;;;;;;;18.45;52.24;100801.69;5068641;28;20068;-66
2021/05/18 03:29:15;;;;;;;4.90;0.73;;;;;;;18.62;52.27;100807.72;5068291;28;20148;-66
2021/05/18 03:34:34;;;;;;;3.25;0.40;;;;;;;18.99;51.54;100794.56;5068915;28;20373;-66
2021/05/18 03:37:04;;;;;;;2.17;0.60;;;;;;;19.18;51.43;100797.78;5069116;28;20405;-65
2021/05/18 03:39:32;;;;;;;1.65;0.75;;;;;;;19.34;50.77;100792.09;5068836;28;20036;-67
2021/05/18 03:42:04;;;;;;;2.88;1.23;;;;;;;19.35;50.79;100795.66;5071496;28;20040;-66
2021/05/18 03:52:50;;;;;;;1.92;0.60;;;;;;;19.94;50.52;100802.50;5071228;28;20134;-66
2021/05/18 04:03:38;;;;;;;6.32;4.32;;;;;;;20.54;49.35;100818.09;5072758;28;20040;-66
2021/05/18 04:12:01;;;;;;;4.88;2.30;;;;;;;21.22;48.65;100804.72;5065880;28;20098;-66
2021/05/18 04:17:12;;;;;;;8.70;2.40;;;;;;;21.75;47.75;100808.56;5070867;28;20045;-66
2021/05/18 04:19:44;;;;;;;9.50;3.20;;;;;;;22.08;47.41;100814.75;5072130;28;20060;-66
2021/05/18 04:22:26;;;;;;;7.43;2.45;;;;;;;22.37;47.72;100817.44;5070548;28;20047;-66
2021/05/18 04:39:02;;;;;;;3.67;0.70;;;;;;;23.08;45.45;100824.06;5066704;28;20007;-66
2021/05/18 04:52:29;;;;;;;5.45;0.60;;;;;;;25.16;43.38;100819.47;5071554;28;20427;-66
2021/05/18 05:00:49;;;;;;;3.55;0.60;;;;;;;26.25;41.45;100834.38;5066134;28;20438;-66
2021/05/18 05:06:21;;;;;;;4.57;0.65;;;;;;;26.88;40.35;100836.59;5071352;28;20051;-66
2021/05/18 05:08:55;;;;;;;1.58;0.40;;;;;;;27.24;39.42;100838.44;5066573;28;20040;-65
2021/05/18 05:14:21;;;;;;;4.25;0.77;;;;;;;27.71;38.44;100853.06;5055882;28;20044;-66
2021/05/18 05:16:48;;;;;;;3.13;0.40;;;;;;;28.10;37.40;100855.44;5071691;28;20041;-66
2021/05/18 05:19:15;;;;;;;2.88;0.60;;;;;;;28.47;36.77;100859.72;5071211;28;20404;-66
2021/05/18 05:21:42;;;;;;;4.20;0.68;;;;;;;28.89;36.42;100856.38;5071030;28;20060;-66
2021/05/18 05:24:11;;;;;;;2.55;0.60;;;;;;;29.32;35.36;100864.69;5070400;28;20166;-66
2021/05/18 05:26:40;;;;;;;4.00;0.60;;;;;;;29.56;35.10;100857.78;5070653;28;20118;-66
2021/05/18 05:29:08;;;;;;;5.15;0.85;;;;;;;29.77;34.35;100860.16;5068567;28;20094;-66
2021/05/18 05:31:37;;;;;;;1.60;0.50;;;;;;;29.94;33.62;100869.03;5070049;28;20040;-66
2021/05/18 05:34:04;;;;;;;2.80;0.52;;;;;;;30.00;33.20;100865.03;5070149;28;20036;-67
2021/05/18 05:36:31;;;;;;;5.05;0.60;;;;;;;30.03;33.00;100868.44;5070939;28;20052;-66
2021/05/18 05:39:05;;;;;;;3.20;0.95;;;;;;;30.17;32.94;100869.41;5069920;28;20507;-66
2021/05/18 05:41:33;;;;;;;9.00;0.70;;;;;;;30.41;32.67;100871.44;5070411;28;20055;-66
2021/05/18 05:44:00;;;;;;;3.95;0.73;;;;;;;30.58;33.08;100875.81;5069430;28;20037;-66
2021/05/18 05:46:27;;;;;;;3.70;1.13;;;;;;;30.75;32.38;100885.59;5069963;28;20044;-67
2021/05/18 05:48:54;;;;;;;4.13;0.60;;;;;;;30.57;32.67;100892.28;5069460;28;20128;-67
2021/05/18 05:51:22;;;;;;;7.57;1.30;;;;;;;30.24;33.15;100884.41;5070440;28;20123;-67
2021/05/18 05:53:50;;;;;;;6.65;0.85;;;;;;;30.25;32.98;100877.97;5071040;28;20060;-66
2021/05/18 05:56:18;;;;;;;5.68;0.88;;;;;;;30.30;32.16;100884.88;5069970;28;20040;-67
2021/05/18 05:58:47;;;;;;;7.30;0.60;;;;;;;30.46;32.33;100888.34;5070932;28;20047;-67
2021/05/18 06:01:16;;;;;;;2.53;0.57;;;;;;;30.59;31.89;100888.44;5070722;28;20037;-68
2021/05/18 06:03:43;;;;;;;4.65;0.57;;;;;;;30.54;31.80;100887.88;5070735;28;20037;-67
2021/05/18 06:06:10;;;;;;;3.53;1.00;;;;;;;30.45;31.71;100893.94;5070652;28;21051;-67
2021/05/18 06:08:38;;;;;;;2.65;0.70;;;;;;;30.44;31.15;100897.63;5070611;28;20492;-68
2021/05/18 06:11:11;;;;;;;3.80;0.45;;;;;;;30.35;31.08;100895.47;5070234;28;20040;-67
2021/05/18 06:13:51;;;;;;;4.78;0.65;;;;;;;30.29;31.23;100901.31;5070274;28;20037;-67
2021/05/18 06:46:56;;;;;;;5.38;1.08;;;;;;;30.26;29.97;100912.44;5046997;28;20045;-67
2021/05/18 06:49:24;;;;;;;3.97;0.57;;;;;;;30.33;29.86;100913.75;5050266;28;20091;-67
2021/05/18 06:51:51;;;;;;;4.40;0.73;;;;;;;30.38;29.91;100911.63;5049649;28;20045;-67
2021/05/18 06:54:19;;;;;;;5.43;1.08;;;;;;;30.42;29.69;100911.34;5049910;28;20038;-67
2021/05/18 06:56:50;;;;;;;5.85;0.70;;;;;;;30.41;29.62;100905.97;5033606;28;20421;-67
2021/05/18 07:02:02;;;;;;;3.88;0.70;;;;;;;30.54;30.00;100914.25;5050739;28;20450;-67
2021/05/18 07:04:30;;;;;;;5.05;0.80;;;;;;;30.60;29.92;100924.75;5051062;28;20479;-67
2021/05/18 07:07:06;;;;;;;4.75;1.13;;;;;;;30.32;30.24;100917.50;5049764;28;20497;-67
2021/05/18 07:09:33;;;;;;;3.30;0.63;;;;;;;30.23;30.57;100918.06;5050046;28;20102;-68
2021/05/18 07:12:00;;;;;;;5.53;1.05;;;;;;;30.42;30.27;100918.63;5050981;28;20041;-66
2021/05/18 07:14:27;;;;;;;4.32;1.02;;;;;;;30.49;30.24;100920.03;5052084;28;20091;-67
2021/05/18 07:16:54;;;;;;;6.28;1.33;;;;;;;30.58;29.65;100921.28;5054081;28;20041;-67
2021/05/18 07:19:22;;;;;;;4.30;0.70;;;;;;;30.46;29.72;100914.72;5054187;28;20562;-67
2021/05/18 07:21:50;;;;;;;7.15;1.02;;;;;;;30.55;30.06;100919.63;5053786;28;20383;-67
2021/05/18 07:24:22;;;;;;;2.40;0.70;;;;;;;30.54;30.36;100917.88;5053973;28;20520;-67
2021/05/18 07:26:50;;;;;;;3.80;0.82;;;;;;;30.61;30.68;100921.94;5053699;28;20048;-68
2021/05/18 07:29:18;;;;;;;5.63;0.85;;;;;;;30.77;30.77;100935.47;5054083;28;20033;-67
2021/05/18 07:31:45;;;;;;;5.68;0.70;;;;;;;30.67;31.01;100935.19;5052044;28;20128;-67
2021/05/18 07:34:13;;;;;;;6.20;0.80;;;;;;;30.71;30.80;100928.56;5050086;28;20116;-67
2021/05/18 07:36:42;;;;;;;4.53;1.25;;;;;;;30.57;30.98;100928.59;5058993;28;20102;-67
2021/05/18 07:39:10;;;;;;;3.22;0.68;;;;;;;30.52;30.84;100940.78;5072128;28;20044;-67
2021/05/18 07:41:38;;;;;;;4.88;0.80;;;;;;;30.68;30.64;100936.94;5073636;28;20061;-68
2021/05/18 07:44:05;;;;;;;3.72;0.70;;;;;;;30.89;31.17;100934.66;5072662;28;20036;-67
2021/05/18 07:46:33;;;;;;;2.92;0.95;;;;;;;31.09;30.89;100941.53;5072965;28;20430;-67
2021/05/18 07:49:15;;;;;;;5.82;0.80;;;;;;;31.36;30.69;100930.63;5072848;28;20049;-67
2021/05/18 07:59:57;;;;;;;4.38;0.85;;;;;;;31.81;28.94;100929.31;5072550;28;20051;-67
2021/05/18 08:05:18;;;;;;;2.80;0.60;;;;;;;31.85;29.21;100941.75;5075594;28;20075;-66
2021/05/18 08:07:46;;;;;;;2.97;0.70;;;;;;;31.94;29.28;100938.41;5074239;28;20070;-68
2021/05/18 08:10:17;;;;;;;6.53;0.88;;;;;;;31.86;29.09;100928.00;5069386;28;20531;-67
2021/05/18 08:12:45;;;;;;;5.45;0.85;;;;;;;31.75;29.73;100936.09;5075171;28;20555;-66
2021/05/18 08:15:41;;;;;;;7.90;1.23;;;;;;;31.44;30.86;100937.28;5075540;28;20511;-67
2021/05/18 08:18:13;;;;;;;5.43;1.10;;;;;;;31.40;31.13;100929.41;5077177;28;20041;-67
2021/05/18 08:21:15;;;;;;;3.70;0.95;;;;;;;31.21;31.46;100938.88;5075465;28;20072;-67
2021/05/18 10:35:49;;;;;;;3.45;0.65;;;;;;;32.01;27.99;100936.97;5051580;28;20045;-67
2021/05/18 10:38:21;;;;;;;2.45;0.52;;;;;;;32.00;27.71;100924.28;5057411;28;20050;-66
2021/05/18 10:40:51;;;;;;;3.53;0.40;;;;;;;32.05;27.73;100933.91;5069136;28;20143;-67
2021/05/18 10:43:22;;;;;;;3.58;0.55;;;;;;;32.21;27.23;100933.72;5068070;28;20056;-66
2021/05/18 10:46:16;;;;;;;3.42;0.88;;;;;;;32.37;26.88;100934.34;5070019;28;20163;-67
2021/05/18 10:49:05;;;;;;;3.00;0.60;;;;;;;32.37;26.84;100941.69;5062703;28;20591;-66
2021/05/18 10:51:53;;;;;;;3.90;0.50;;;;;;;32.41;27.24;100935.91;5065102;28;20036;-67
2021/05/18 10:54:31;;;;;;;1.83;0.50;;;;;;;32.57;26.61;100932.03;5072843;28;20119;-66
2021/05/18 10:57:29;;;;;;;2.90;0.65;;;;;;;32.78;26.54;100927.75;5073754;28;20400;-66
2021/05/18 10:59:59;;;;;;;1.38;0.28;;;;;;;33.08;26.42;100927.31;5068494;28;20046;-67
2021/05/18 11:02:30;;;;;;;3.45;0.60;;;;;;;33.16;26.26;100935.78;5074394;28;20079;-67
2021/05/18 11:05:00;;;;;;;2.85;0.95;;;;;;;33.08;26.04;100927.31;5069136;28;20380;-66
2021/05/18 11:07:33;;;;;;;1.52;0.50;;;;;;;33.03;26.07;100924.03;5073402;28;20047;-66
2021/05/18 11:10:04;;;;;;;2.13;0.70;;;;;;;33.15;26.27;100929.44;5073483;28;20373;-66
2021/05/18 11:12:32;;;;;;;4.03;0.80;;;;;;;33.10;26.05;100928.94;5073632;28;20614;-67
2021/05/18 11:15:09;;;;;;;4.47;0.80;;;;;;;33.14;25.95;100930.47;5074230;28;20068;-67
2021/05/18 11:17:38;;;;;;;4.03;0.55;;;;;;;32.99;25.92;100934.34;5074227;28;20035;-69
2021/05/18 11:20:09;;;;;;;1.67;0.60;;;;;;;32.93;25.76;100933.94;5073756;28;20120;-67
2021/05/18 11:25:38;;;;;;;2.53;0.55;;;;;;;32.92;26.00;100935.78;5055391;28;20095;-67
2021/05/18 11:28:09;;;;;;;2.10;0.40;;;;;;;32.98;26.18;100929.00;5073156;28;20408;-67
2021/05/18 11:30:36;;;;;;;3.85;0.60;;;;;;;33.27;25.87;100929.56;5073687;28;20028;-67
2021/05/18 11:33:04;;;;;;;2.20;0.52;;;;;;;33.32;25.91;100930.94;5066472;28;20045;-66
2021/05/18 11:35:31;;;;;;;2.50;0.47;;;;;;;33.33;26.45;100929.09;5056990;28;20501;-67
2021/05/18 11:38:13;;;;;;;1.83;0.52;;;;;;;33.15;26.39;100923.09;5063236;28;20544;-67
2021/05/18 11:40:44;;;;;;;4.68;1.02;;;;;;;33.22;26.41;100927.16;5072629;28;20052;-67
2021/05/18 11:43:17;;;;;;;2.53;0.52;;;;;;;33.22;26.18;100929.88;5068169;28;20128;-67
2021/05/18 11:45:45;;;;;;;3.08;0.60;;;;;;;33.37;26.31;100931.47;5072626;28;20452;-67
2021/05/18 11:48:14;;;;;;;5.32;0.93;;;;;;;33.27;26.25;100937.78;5067163;28;20124;-68
2021/05/18 11:50:42;;;;;;;2.40;0.85;;;;;;;33.53;26.02;100933.91;5052202;28;20060;-67
2021/05/18 11:53:09;;;;;;;4.40;0.68;;;;;;;33.77;25.80;100932.00;5038952;28;20041;-67
2021/05/18 11:55:37;;;;;;;3.80;1.00;;;;;;;33.89;25.86;100935.63;5036141;28;20080;-68
2021/05/18 11:58:04;;;;;;;2.85;0.35;;;;;;;34.04;25.73;100934.44;5044594;28;20084;-66
2021/05/18 12:00:35;;;;;;;2.53;0.73;;;;;;;34.20;25.37;100937.66;5066816;28;20087;-66
2021/05/18 12:03:06;;;;;;;2.88;0.50;;;;;;;34.06;25.35;100932.44;5073054;28;20464;-67
2021/05/18 12:05:34;;;;;;;4.03;0.60;;;;;;;34.05;25.45;100936.19;5069004;28;20127;-66
2021/05/18 12:08:01;;;;;;;5.93;0.80;;;;;;;34.05;25.06;100933.44;5066965;28;20041;-67
2021/05/18 12:10:32;;;;;;;3.05;0.50;;;;;;;34.13;25.16;100935.56;5072326;28;20053;-66
2021/05/18 12:13:01;;;;;;;3.90;0.65;;;;;;;33.90;25.45;100932.78;5073416;28;20134;-66
2021/05/18 12:15:28;;;;;;;2.00;0.75;;;;;;;33.98;25.30;100929.44;5069000;28;20037;-66
2021/05/18 12:17:58;;;;;;;4.38;1.00;;;;;;;34.41;24.83;100940.59;5073053;28;20592;-67
2021/05/18 12:20:29;;;;;;;2.30;0.50;;;;;;;34.12;25.01;100922.88;5073099;28;20145;-67
2021/05/18 12:22:56;;;;;;;1.80;0.73;;;;;;;34.30;24.91;100927.75;5071819;28;20048;-66
2021/05/18 12:25:34;;;;;;;2.22;0.40;;;;;;;34.71;24.35;100927.16;5071892;28;20065;-67
2021/05/18 12:28:09;;;;;;;3.78;0.50;;;;;;;34.94;24.51;100919.72;5073306;28;20066;-67
2021/05/18 12:30:41;;;;;;;2.95;0.60;;;;;;;35.38;24.04;100924.22;5053355;28;20037;-65
2021/05/18 12:33:10;;;;;;;2.88;0.60;;;;;;;35.60;23.75;100925.13;5072168;28;20178;-68
2021/05/18 12:35:37;;;;;;;1.35;0.32;;;;;;;35.62;23.55;100921.25;5072735;28;20135;-67
2021/05/18 12:38:16;;;;;;;2.70;0.40;;;;;;;35.56;23.52;100917.16;5072613;28;20040;-67
2021/05/18 12:40:44;;;;;;;4.80;0.60;;;;;;;35.56;23.41;100925.41;5072407;28;20527;-67
2021/05/18 12:43:14;;;;;;;2.38;0.38;;;;;;;35.17;23.78;100924.16;5066801;28;20037;-67
2021/05/18 12:45:43;;;;;;;3.50;0.40;;;;;;;34.95;23.78;100915.13;5072157;28;20414;-67
2021/05/18 12:48:13;;;;;;;1.98;0.30;;;;;;;35.12;23.59;100909.06;5071143;28;20055;-66
2021/05/18 12:50:47;;;;;;;1.90;0.50;;;;;;;35.47;23.38;100903.34;5072016;28;20044;-67
2021/05/18 12:53:25;;;;;;;2.20;0.40;;;;;;;35.88;23.07;100910.75;5072022;28;20527;-67
2021/05/18 12:55:54;;;;;;;3.95;0.70;;;;;;;36.10;22.67;100904.22;5072913;28;20044;-66
2021/05/18 12:58:27;;;;;;;2.95;0.50;;;;;;;35.85;22.90;100903.63;5071543;28;20090;-66
2021/05/18 13:01:05;;;;;;;5.28;0.40;;;;;;;35.60;22.96;100900.38;5069907;28;20060;-67
2021/05/18 13:03:34;;;;;;;4.63;0.65;;;;;;;35.56;23.19;100902.56;5071364;28;20040;-67
2021/05/18 13:06:02;;;;;;;1.65;0.40;;;;;;;35.19;23.65;100897.44;5071306;28;20096;-67
2021/05/18 13:08:34;;;;;;;0.68;0.30;;;;;;;35.08;23.62;100897.47;5069698;28;20078;-67
2021/05/18 13:11:17;;;;;;;3.53;0.82;;;;;;;35.27;23.71;100895.94;5071443;28;20056;-67
2021/05/18 13:13:52;;;;;;;3.67;0.60;;;;;;;35.22;23.86;100893.59;5070540;28;20503;-68
2021/05/18 13:16:21;;;;;;;3.65;0.57;;;;;;;34.98;24.23;100896.53;5058239;28;20045;-68
2021/05/18 13:18:59;;;;;;;3.28;0.60;;;;;;;34.85;23.97;100900.44;5070678;28;20036;-68
2021/05/18 13:21:32;;;;;;;2.78;0.40;;;;;;;34.62;24.43;100894.06;5071220;28;20483;-67
2021/05/18 13:26:42;;;;;;;2.22;0.40;;;;;;;34.21;24.72;100878.22;5035454;28;20051;-68
2021/05/18 13:29:15;;;;;;;3.35;0.50;;;;;;;34.06;25.04;100883.13;5070865;28;20044;-67
2021/05/18 13:31:42;;;;;;;3.70;0.75;;;;;;;33.70;25.57;100884.13;5068629;28;20146;-67
2021/05/18 13:34:11;;;;;;;6.35;0.77;;;;;;;33.48;25.62;100895.91;5050284;28;20080;-67
2021/05/18 13:36:38;;;;;;;2.40;0.60;;;;;;;33.59;25.84;100886.84;5060651;28;20090;-66
2021/05/18 13:39:08;;;;;;;1.95;0.73;;;;;;;33.67;25.59;100876.19;5071455;28;20036;-66
2021/05/18 13:41:36;;;;;;;2.85;0.52;;;;;;;33.83;25.50;100884.94;5071401;28;20381;-66
2021/05/18 13:44:04;;;;;;;3.25;0.65;;;;;;;33.94;25.31;100878.59;5070369;28;20064;-67
2021/05/18 13:46:31;;;;;;;3.42;0.73;;;;;;;34.07;24.95;100881.25;5070735;28;20093;-67
2021/05/18 13:49:20;;;;;;;3.45;0.45;;;;;;;34.07;25.09;100881.25;5070314;28;20089;-67
2021/05/18 13:51:48;;;;;;;3.33;0.45;;;;;;;34.14;25.13;100882.47;5070142;28;20059;-67
2021/05/18 13:54:15;;;;;;;1.85;0.40;;;;;;;34.07;25.29;100892.22;5068425;28;20036;-67
2021/05/18 13:56:42;;;;;;;4.25;0.55;;;;;;;34.11;25.36;100880.00;5069377;28;20033;-67
2021/05/18 13:59:10;;;;;;;4.10;0.98;;;;;;;34.25;25.10;100877.03;5069775;28;20035;-67
2021/05/18 14:01:37;;;;;;;1.83;0.40;;;;;;;34.21;25.38;100878.22;5070754;28;20028;-67
2021/05/18 14:04:04;;;;;;;0.95;0.43;;;;;;;34.18;25.32;100873.88;5071039;28;20059;-66
2021/05/18 14:06:34;;;;;;;3.15;0.47;;;;;;;34.10;25.41;100864.53;5069712;28;20552;-67
2021/05/18 14:09:01;;;;;;;1.55;0.50;;;;;;;34.04;25.76;100873.25;5070816;28;20106;-67
2021/05/18 14:11:28;;;;;;;1.48;0.38;;;;;;;34.07;25.96;100873.03;5070201;28;20041;-67
2021/05/18 14:13:56;;;;;;;2.50;0.73;;;;;;;34.16;25.81;100883.22;5070899;28;20072;-67
2021/05/18 14:16:24;;;;;;;1.80;0.40;;;;;;;33.81;25.90;100881.44;5071029;28;20115;-67
2021/05/18 14:18:52;;;;;;;3.80;0.50;;;;;;;33.39;26.61;100888.41;5071156;28;20037;-67
2021/05/18 14:21:21;;;;;;;3.63;0.80;;;;;;;33.25;26.91;100885.88;5071662;28;20062;-67
2021/05/18 14:23:56;;;;;;;3.65;0.65;;;;;;;33.29;26.52;100884.63;5070278;28;20055;-67
2021/05/18 14:26:25;;;;;;;4.57;0.73;;;;;;;33.46;26.91;100892.44;5071284;28;20503;-67
2021/05/18 14:28:52;;;;;;;1.90;0.63;;;;;;;33.39;26.99;100887.53;5071232;28;20044;-68
2021/05/18 14:31:19;;;;;;;1.70;0.52;;;;;;;33.31;27.20;100892.72;5070400;28;20519;-67
2021/05/18 14:33:46;;;;;;;2.80;0.73;;;;;;;33.16;27.33;100887.41;5070072;28;20505;-68
2021/05/18 14:36:14;;;;;;;1.58;0.60;;;;;;;33.04;27.54;100891.09;5070641;28;20064;-67
2021/05/18 14:38:44;;;;;;;6.68;0.60;;;;;;;32.96;27.59;100896.25;5071063;28;20047;-67
2021/05/18 14:44:09;;;;;;;7.18;0.50;;;;;;;32.54;28.12;100899.47;5068677;28;20407;-67
2021/05/18 14:46:43;;;;;;;5.07;0.65;;;;;;;32.36;28.65;100891.59;5071418;28;20047;-67
2021/05/18 14:54:47;;;;;;;3.78;0.52;;;;;;;32.37;28.46;100896.09;5050420;28;20053;-67
2021/05/18 14:57:16;;;;;;;2.42;0.50;;;;;;;32.25;28.56;100899.72;5050758;28;20040;-65
2021/05/18 14:59:43;;;;;;;4.55;0.55;;;;;;;32.25;28.76;100904.31;5050279;28;20615;-66
2021/05/18 15:02:10;;;;;;;3.58;0.40;;;;;;;32.42;28.55;100899.38;5051839;28;20037;-65
2021/05/18 15:04:38;;;;;;;4.80;0.50;;;;;;;32.54;28.44;100902.19;5069377;28;20043;-65
2021/05/18 15:07:07;;;;;;;4.55;0.50;;;;;;;32.42;28.64;100893.91;5071125;28;20067;-67
2021/05/18 15:09:35;;;;;;;3.15;0.70;;;;;;;32.16;28.93;100897.66;5071202;28;20060;-67
2021/05/18 15:12:02;;;;;;;5.25;0.52;;;;;;;32.09;29.28;100887.25;5070574;28;20036;-67
2021/05/18 15:14:31;;;;;;;3.50;0.50;;;;;;;32.02;29.48;100886.81;5070306;28;20396;-67
2021/05/18 15:16:58;;;;;;;4.03;0.50;;;;;;;31.96;29.64;100890.88;5070810;28;20040;-67
2021/05/18 15:19:26;;;;;;;1.90;0.50;;;;;;;31.85;29.85;100892.59;5070520;28;20044;-67
2021/05/18 15:21:54;;;;;;;3.90;0.40;;;;;;;31.67;30.09;100897.50;5070443;28;20044;-67
2021/05/18 15:24:21;;;;;;;3.30;0.40;;;;;;;31.32;30.57;100894.47;5070240;28;20064;-67
2021/05/18 15:26:48;;;;;;;3.45;0.40;;;;;;;30.98;31.10;100895.88;5070253;28;20565;-67
2021/05/18 15:29:16;;;;;;;3.38;0.50;;;;;;;30.57;31.66;100890.44;5070705;28;20048;-67
2021/05/18 15:31:46;;;;;;;5.13;0.40;;;;;;;30.33;32.09;100883.78;5070813;28;20123;-67
2021/05/18 15:34:13;;;;;;;2.60;0.50;;;;;;;30.24;32.19;100881.69;5066880;28;20090;-67
2021/05/18 15:36:40;;;;;;;5.97;0.70;;;;;;;30.27;32.13;100886.91;5073419;28;20044;-67
2021/05/18 15:39:08;;;;;;;4.70;0.50;;;;;;;30.15;32.30;100880.41;5073879;28;20067;-66
2021/05/18 15:41:35;;;;;;;5.60;0.90;;;;;;;29.96;32.62;100883.44;5073586;28;20450;-67
2021/05/18 15:44:03;;;;;;;8.20;1.23;;;;;;;29.89;32.73;100875.69;5072879;28;20029;-67
2021/05/18 15:46:31;;;;;;;2.67;0.40;;;;;;;29.60;33.09;100886.53;5071172;28;20610;-66
2021/05/18 15:48:59;;;;;;;4.97;0.65;;;;;;;29.43;33.45;100883.13;5067006;28;20037;-67
2021/05/18 15:51:26;;;;;;;4.82;0.88;;;;;;;29.40;33.51;100872.44;5073167;28;20121;-66
2021/05/18 15:53:53;;;;;;;3.92;0.60;;;;;;;29.35;33.54;100877.25;5073157;28;20043;-66
2021/05/18 15:56:22;;;;;;;4.45;0.80;;;;;;;29.32;33.50;100873.75;5073645;28;20036;-66
2021/05/18 15:58:49;;;;;;;3.30;0.50;;;;;;;29.30;33.60;100866.63;5073402;28;20047;-66
2021/05/18 16:01:16;;;;;;;4.32;0.70;;;;;;;29.38;33.32;100882.53;5073309;28;20032;-67
2021/05/18 16:03:44;;;;;;;4.43;0.60;;;;;;;29.32;33.55;100875.59;5073673;28;20041;-67
2021/05/18 16:06:12;;;;;;;5.78;0.65;;;;;;;29.32;33.53;100881.03;5058063;28;20060;-66